createdAt,value
2019-01-24T00:03:40.680Z,-3.60
2019-01-24T00:08:44.893Z,-3.50
2019-01-24T00:13:49.104Z,-3.60
2019-01-24T00:18:53.380Z,-3.60
2019-01-24T00:23:57.677Z,-3.50
2019-01-24T00:29:01.876Z,-3.50
2019-01-24T00:34:06.151Z,-3.30
2019-01-24T00:39:10.353Z,-3.60
2019-01-24T00:44:14.548Z,-3.80
2019-01-24T00:49:18.865Z,-3.80
2019-01-24T00:54:23.055Z,-4.00
2019-01-24T00:59:27.235Z,-3.90
2019-01-24T01:04:31.415Z,-4.00
2019-01-24T01:09:35.635Z,-4.20
2019-01-24T01:14:39.830Z,-4.20
2019-01-24T01:19:44.088Z,-4.10
2019-01-24T01:24:48.282Z,-3.80
2019-01-24T01:29:52.486Z,-3.90
2019-01-24T01:34:56.687Z,-4.10
2019-01-24T01:40:00.887Z,-3.80
2019-01-24T01:45:06.648Z,-3.60
2019-01-24T01:50:15.107Z,-4.00
2019-01-24T01:55:19.391Z,-3.90
2019-01-24T02:00:24.845Z,-3.70
2019-01-24T02:05:29.117Z,-3.60
2019-01-24T02:10:33.313Z,-3.70
2019-01-24T02:15:37.514Z,-3.70
2019-01-24T02:20:41.694Z,-3.50
2019-01-24T02:25:45.912Z,-3.40
2019-01-24T02:30:50.132Z,-3.40
2019-01-24T02:35:54.332Z,-3.50
2019-01-24T02:40:58.511Z,-3.40
2019-01-24T02:46:02.768Z,-3.20
2019-01-24T02:51:06.959Z,-3.20
2019-01-24T02:56:11.131Z,-3.40
2019-01-24T03:01:15.328Z,-3.10
2019-01-24T03:06:19.501Z,-3.00
2019-01-24T03:11:23.680Z,-3.00
2019-01-24T03:16:27.871Z,-3.20
2019-01-24T03:21:32.064Z,-3.30
2019-01-24T03:26:36.264Z,-3.20
2019-01-24T03:31:40.516Z,-3.30
2019-01-24T03:36:44.716Z,-3.30
2019-01-24T03:41:48.922Z,-3.00
2019-01-24T03:46:53.103Z,-3.00
2019-01-24T03:51:57.308Z,-3.10
2019-01-24T03:57:01.492Z,-2.80
2019-01-24T04:02:05.688Z,-2.50
2019-01-24T04:07:09.868Z,-2.60
2019-01-24T04:12:14.055Z,-2.50
2019-01-24T04:17:18.219Z,-2.80
2019-01-24T04:22:22.397Z,-2.80
2019-01-24T04:27:26.579Z,-2.60
2019-01-24T04:32:30.784Z,-2.50
2019-01-24T04:37:34.977Z,-2.20
2019-01-24T04:42:39.168Z,-2.20
2019-01-24T04:47:43.567Z,-2.10
2019-01-24T04:52:47.888Z,-2.10
2019-01-24T04:57:52.040Z,-2.20
2019-01-24T05:02:56.443Z,-2.60
2019-01-24T05:08:00.696Z,-2.40
2019-01-24T05:13:04.919Z,-2.60
2019-01-24T05:18:09.170Z,-2.40
2019-01-24T05:23:13.432Z,-2.30
2019-01-24T05:28:17.639Z,-2.10
2019-01-24T05:33:21.831Z,-2.10
2019-01-24T05:38:26.040Z,-2.10
2019-01-24T05:43:30.317Z,-2.00
2019-01-24T05:48:34.578Z,-2.00
2019-01-24T05:53:38.820Z,-2.30
2019-01-24T05:58:43.003Z,-2.20
2019-01-24T06:03:47.190Z,-2.20
2019-01-24T06:08:51.353Z,-2.40
2019-01-24T06:13:55.527Z,-2.60
2019-01-24T06:18:59.715Z,-2.20
2019-01-24T06:24:03.894Z,-2.10
2019-01-24T06:29:08.107Z,-2.30
2019-01-24T06:34:12.578Z,-2.40
2019-01-24T06:39:16.770Z,-2.40
2019-01-24T06:44:21.321Z,-2.50
2019-01-24T06:49:25.711Z,-2.60
2019-01-24T06:54:29.966Z,-2.70
2019-01-24T06:59:34.155Z,-2.90
2019-01-24T07:04:38.376Z,-2.60
2019-01-24T07:09:42.566Z,-2.50
2019-01-24T07:14:46.777Z,-2.60
2019-01-24T07:19:51.048Z,-2.70
2019-01-24T07:24:55.282Z,-2.60
2019-01-24T07:29:59.483Z,-2.60
2019-01-24T07:35:04.004Z,-2.20
2019-01-24T07:40:12.537Z,-2.30
2019-01-24T07:45:25.608Z,-2.50
2019-01-24T07:50:29.885Z,-2.50
2019-01-24T07:55:34.083Z,-2.70
2019-01-24T08:00:39.196Z,-2.70
2019-01-24T08:05:43.423Z,-2.90
2019-01-24T08:10:47.618Z,-2.90
2019-01-24T08:15:51.887Z,-3.00
2019-01-24T08:20:56.148Z,-3.40
2019-01-24T08:26:00.371Z,-3.10
2019-01-24T08:31:04.840Z,-2.90
2019-01-24T08:36:15.428Z,-2.50
2019-01-24T08:41:15.066Z,-2.20
2019-01-24T08:46:19.263Z,-1.90
2019-01-24T08:51:23.471Z,-1.50
2019-01-24T08:56:27.757Z,-1.50
2019-01-24T09:01:31.988Z,-1.30
2019-01-24T09:06:36.336Z,-0.60
2019-01-24T09:11:40.570Z,0.50
2019-01-24T09:16:44.748Z,1.50
2019-01-24T09:21:48.972Z,2.60
2019-01-24T09:26:53.343Z,3.20
2019-01-24T09:31:57.545Z,3.40
2019-01-24T09:37:01.747Z,3.00
2019-01-24T09:42:06.020Z,2.20
2019-01-24T09:47:10.206Z,1.90
2019-01-24T09:52:15.630Z,1.50
2019-01-24T09:57:19.816Z,0.80
2019-01-24T10:02:24.036Z,0.90
2019-01-24T10:07:29.339Z,1.60
2019-01-24T10:12:33.526Z,2.50
2019-01-24T10:17:37.691Z,3.20
2019-01-24T10:22:41.893Z,3.70
2019-01-24T10:27:46.135Z,5.30
2019-01-24T10:32:50.574Z,6.30
2019-01-24T10:37:55.569Z,6.30
2019-01-24T10:42:59.852Z,4.50
2019-01-24T10:48:04.220Z,5.10
2019-01-24T10:53:08.556Z,6.70
2019-01-24T10:58:12.741Z,5.70
2019-01-24T11:03:18.429Z,4.70
2019-01-24T11:08:22.615Z,4.10
2019-01-24T11:13:26.856Z,4.10
2019-01-24T11:18:31.124Z,3.40
2019-01-24T11:23:35.403Z,2.50
2019-01-24T11:28:39.608Z,2.10
2019-01-24T11:33:43.816Z,2.00
2019-01-24T11:38:48.025Z,1.50
2019-01-24T11:43:52.297Z,1.30
2019-01-24T11:48:56.536Z,0.90
2019-01-24T11:54:00.744Z,1.10
2019-01-24T11:59:05.051Z,1.00
2019-01-24T12:04:09.519Z,0.70
2019-01-24T12:09:13.762Z,1.10
2019-01-24T12:14:18.031Z,0.50
2019-01-24T12:19:22.237Z,0.40
2019-01-24T12:24:26.429Z,0.60
2019-01-24T12:29:30.714Z,0.80
2019-01-24T12:34:34.980Z,0.50
2019-01-24T12:39:40.805Z,0.50
2019-01-24T12:44:45.084Z,0.80
2019-01-24T12:49:49.293Z,0.20
2019-01-24T12:54:53.513Z,0.20
2019-01-24T12:59:57.728Z,0.40
2019-01-24T13:10:06.421Z,0.20
2019-01-24T13:15:11.565Z,0.10
2019-01-24T13:20:17.277Z,0.20
2019-01-24T13:25:34.072Z,0.50
2019-01-24T13:30:38.431Z,0.60
2019-01-24T13:35:42.639Z,0.70
2019-01-24T13:40:46.872Z,0.70
2019-01-24T13:45:51.098Z,0.80
2019-01-24T13:50:55.418Z,1.10
2019-01-24T13:55:59.643Z,0.80
2019-01-24T14:01:03.842Z,0.80
2019-01-24T14:06:08.068Z,0.40
2019-01-24T14:11:18.011Z,0.50
2019-01-24T14:16:18.255Z,0.40
2019-01-24T14:21:22.538Z,0.80
2019-01-24T14:26:26.864Z,0.80
2019-01-24T14:31:31.080Z,0.80
2019-01-24T14:36:35.320Z,0.90
2019-01-24T14:41:39.525Z,0.70
2019-01-24T14:46:43.708Z,0.40
2019-01-24T14:51:47.964Z,0.30
2019-01-24T14:56:52.191Z,0.20
2019-01-24T15:01:56.394Z,0.60
2019-01-24T15:07:00.674Z,0.70
2019-01-24T15:12:05.256Z,0.80
2019-01-24T15:17:09.567Z,0.80
2019-01-24T15:22:13.791Z,0.90
2019-01-24T15:27:18.103Z,0.90
2019-01-24T15:32:22.408Z,0.80
2019-01-24T15:37:26.668Z,0.70
2019-01-24T15:42:30.896Z,0.70
2019-01-24T15:47:35.110Z,0.60
2019-01-24T15:52:39.417Z,0.60
2019-01-24T15:57:43.792Z,0.50
2019-01-24T16:02:48.045Z,0.50
2019-01-24T16:07:52.315Z,0.20
2019-01-24T16:12:56.559Z,0.30
2019-01-24T16:18:00.974Z,0.30
2019-01-24T16:23:05.832Z,0.30
2019-01-24T16:28:10.229Z,0.40
2019-01-24T16:33:14.577Z,0.40
2019-01-24T16:38:18.933Z,0.20
2019-01-24T16:43:23.219Z,0.30
2019-01-24T16:48:27.398Z,0.20
2019-01-24T16:53:31.643Z,0.20
2019-01-24T16:58:38.151Z,0.20
2019-01-24T17:03:42.601Z,0.20
2019-01-24T17:08:48.632Z,0.30
2019-01-24T17:13:53.068Z,0.30
2019-01-24T17:18:57.650Z,0.40
2019-01-24T17:24:02.051Z,0.30
2019-01-24T17:29:06.572Z,0.20
2019-01-24T17:34:10.803Z,0.30
2019-01-24T17:39:15.128Z,0.20
2019-01-24T17:44:19.486Z,0.20
2019-01-24T17:49:23.710Z,0.20
2019-01-24T17:54:28.111Z,0.00
2019-01-24T17:59:32.506Z,0.20
2019-01-24T18:04:37.202Z,0.10
2019-01-24T18:09:41.545Z,0.10
2019-01-24T18:14:45.927Z,0.10
2019-01-24T18:19:50.136Z,0.00
2019-01-24T18:24:54.489Z,0.00
2019-01-24T18:29:58.783Z,0.10
2019-01-24T18:35:03.155Z,0.00
2019-01-24T18:40:08.252Z,-0.10
2019-01-24T18:45:16.497Z,-0.10
2019-01-24T18:50:21.924Z,-0.20
2019-01-24T18:55:26.168Z,0.10
2019-01-24T19:00:38.852Z,-0.10
2019-01-24T19:05:44.064Z,0.00
2019-01-24T19:10:48.423Z,-0.40
2019-01-24T19:15:52.810Z,-0.30
2019-01-24T19:20:57.087Z,-0.50
2019-01-24T19:26:01.354Z,-0.30
2019-01-24T19:31:05.881Z,-0.20
2019-01-24T19:36:10.247Z,-0.30
2019-01-24T19:41:15.055Z,-0.20
2019-01-24T19:46:19.311Z,-0.40
2019-01-24T19:51:23.563Z,-0.20
2019-01-24T19:56:28.855Z,-0.20
2019-01-24T20:01:33.196Z,-0.30
2019-01-24T20:06:37.481Z,-0.10
2019-01-24T20:11:41.789Z,-0.30
2019-01-24T20:16:46.101Z,-0.40
2019-01-24T20:21:50.353Z,-0.40
2019-01-24T20:26:54.769Z,-0.50
2019-01-24T20:31:59.116Z,-0.50
2019-01-24T20:37:03.550Z,-0.40
2019-01-24T20:42:07.975Z,-0.50
2019-01-24T20:47:12.433Z,-0.30
2019-01-24T20:52:16.869Z,-0.30
2019-01-24T20:57:21.722Z,-0.40
2019-01-24T21:02:26.065Z,-0.20
2019-01-24T21:07:30.481Z,-0.40
2019-01-24T21:12:34.811Z,-0.50
2019-01-24T21:17:39.248Z,-0.70
2019-01-24T21:22:43.566Z,-0.80
2019-01-24T21:27:47.903Z,-0.70
2019-01-24T21:32:53.934Z,-0.50
2019-01-24T21:37:58.280Z,-0.60
2019-01-24T21:43:02.533Z,-0.60
2019-01-24T21:48:07.680Z,-0.50
2019-01-24T21:53:12.057Z,-0.60
2019-01-24T21:58:16.406Z,-0.50
2019-01-24T22:03:20.829Z,-0.60
2019-01-24T22:08:25.325Z,-0.70
2019-01-24T22:13:29.790Z,-0.30
2019-01-24T22:18:34.230Z,-0.60
2019-01-24T22:23:38.616Z,-0.50
2019-01-24T22:28:42.848Z,-0.80
2019-01-24T22:33:47.143Z,-1.00
2019-01-24T22:38:51.533Z,-1.00
2019-01-24T22:43:55.908Z,-0.80
2019-01-24T22:49:00.142Z,-0.70
2019-01-24T22:54:04.844Z,-0.70
2019-01-24T22:59:09.181Z,-0.80
2019-01-24T23:04:16.394Z,-1.00
2019-01-24T23:09:20.729Z,-0.90
2019-01-24T23:14:24.950Z,-0.80
2019-01-24T23:19:29.251Z,-1.00
2019-01-24T23:24:33.565Z,-0.80
2019-01-24T23:29:37.809Z,-0.80
2019-01-24T23:34:42.106Z,-0.70
2019-01-24T23:39:51.738Z,-0.70
2019-01-24T23:44:52.402Z,-0.80
2019-01-24T23:49:56.816Z,-0.80
2019-01-24T23:55:01.128Z,-0.70
